Terminal Aerodrome Forecast
Issued by NWS

Home | Current Version | Previous Version | Text Only | Print | Product List | Glossary On
Versions: 1 2 3 4 5 6 7 8 9 10 11 12 13 14 15 16 17 18 19 20 21 22 23 24 25 26 27 28 29 30 31 32 33 34 35 36 37
000
FTUS45 KPIH 212324
TAFSUN
TAF
KSUN 212324Z 2200/2224 25010G29KT P6SM -SHRA VCTS SCT025CB BKN040
     FM220400 30007KT P6SM SCT050
     FM221900 17006KT P6SM VCSH SCT040
      AMD LTD TO CLD VIS AND WIND 2206/2214=

USA.gov is the U.S. government's official web portal to all federal, state and local government web resources and services.